Time;durP1;ratioP1;P1;durP2;ratioP2;P2;SDS_P1;SDS_P2;PMS_P1;PMS_P2;Temp;Humidity;BMP_temperature;BMP_pressure;BME280_temperature;BME280_humidity;BME280_pressure;Samples;Min_cycle;Max_cycle;Signal;HPM_P1;HPM_P2
2021/01/05 00:01:56;;;;;;;15.57;7.40;;;;;;;1.68;nan;95867.72;4883805;29;20194;-68
2021/01/05 00:04:23;;;;;;;17.73;7.10;;;;;;;1.75;nan;95863.19;4879897;29;20247;-68
2021/01/05 00:06:50;;;;;;;14.00;7.22;;;;;;;1.74;nan;95862.34;4886232;29;20508;-69
2021/01/05 00:09:18;;;;;;;17.27;8.20;;;;;;;1.75;nan;95858.03;4883283;29;20555;-68
2021/01/05 00:11:58;;;;;;;15.52;8.80;;;;;;;1.80;nan;95856.13;4883753;29;20247;-68
2021/01/05 00:14:25;;;;;;;18.90;8.82;;;;;;;1.72;nan;95853.91;4879209;29;20224;-68
2021/01/05 00:16:52;;;;;;;14.50;7.75;;;;;;;1.67;nan;95852.38;4883720;29;20395;-68
2021/01/05 00:19:19;;;;;;;18.55;8.32;;;;;;;1.64;nan;95853.34;4883244;29;20307;-69
2021/01/05 00:21:46;;;;;;;17.08;7.65;;;;;;;1.62;nan;95852.56;4883670;29;20228;-68
2021/01/05 00:24:13;;;;;;;16.80;8.07;;;;;;;1.73;nan;95853.00;4883082;29;20312;-66
2021/01/05 00:26:41;;;;;;;16.73;8.15;;;;;;;1.65;nan;95857.59;4884549;29;20228;-68
2021/01/05 00:29:09;;;;;;;13.02;7.15;;;;;;;1.70;nan;95862.53;4881448;29;20562;-67
2021/01/05 00:31:36;;;;;;;15.18;6.63;;;;;;;1.68;nan;95857.47;4882991;29;20603;-67
2021/01/05 00:34:05;;;;;;;14.73;7.70;;;;;;;1.59;nan;95859.56;4881019;29;20232;-67
2021/01/05 00:36:34;;;;;;;20.25;9.23;;;;;;;1.60;nan;95864.63;4882804;29;20213;-69
2021/01/05 00:39:01;;;;;;;15.30;8.00;;;;;;;1.69;nan;95871.13;4883181;29;20540;-68
2021/01/05 00:41:28;;;;;;;21.50;10.23;;;;;;;1.73;nan;95865.81;4886024;29;20197;-69
2021/01/05 00:43:56;;;;;;;17.90;8.20;;;;;;;1.52;nan;95827.34;4882995;29;20618;-70
2021/01/05 00:46:22;;;;;;;19.02;8.05;;;;;;;1.77;nan;95864.78;4878620;29;20667;-69
2021/01/05 00:48:49;;;;;;;14.80;7.47;;;;;;;1.83;nan;95872.25;4882358;29;20728;-70
2021/01/05 00:51:16;;;;;;;13.60;7.10;;;;;;;1.75;nan;95853.75;4882726;29;20660;-69
2021/01/05 00:53:43;;;;;;;19.55;8.75;;;;;;;1.86;nan;95874.66;4882531;29;20684;-68
2021/01/05 00:56:10;;;;;;;17.05;8.35;;;;;;;1.88;nan;95880.59;4883061;29;20696;-68
2021/01/05 00:58:37;;;;;;;18.05;8.77;;;;;;;1.83;nan;95872.25;4881779;29;20294;-68
2021/01/05 01:01:05;;;;;;;21.08;8.75;;;;;;;1.83;nan;95872.25;4883701;29;20232;-69
2021/01/05 01:03:32;;;;;;;15.45;8.75;;;;;;;1.86;nan;95872.09;4883896;29;20595;-68
2021/01/05 01:05:58;;;;;;;17.40;8.38;;;;;;;1.88;nan;95875.47;4882252;29;20296;-69
2021/01/05 01:08:25;;;;;;;15.57;8.43;;;;;;;1.88;nan;95878.03;4881847;29;20314;-69
2021/01/05 01:10:52;;;;;;;24.63;9.70;;;;;;;1.86;nan;95881.56;4883077;29;20629;-69
2021/01/05 01:13:19;;;;;;;16.77;8.30;;;;;;;1.84;nan;95878.22;4881926;29;20625;-68
2021/01/05 01:15:46;;;;;;;22.05;10.32;;;;;;;1.83;nan;95877.38;4881931;29;20738;-68
2021/01/05 01:18:13;;;;;;;20.48;10.18;;;;;;;1.83;nan;95876.56;4882602;29;20607;-69
2021/01/05 01:20:40;;;;;;;17.48;9.57;;;;;;;1.80;nan;95874.94;4882034;29;20665;-69
2021/01/05 01:23:07;;;;;;;22.90;10.85;;;;;;;1.83;nan;95874.00;4883009;29;20680;-70
2021/01/05 01:25:34;;;;;;;22.02;10.02;;;;;;;1.78;nan;95874.16;4882266;29;20657;-69
2021/01/05 01:28:01;;;;;;;24.63;10.05;;;;;;;1.87;nan;95872.97;4882771;29;20647;-69
2021/01/05 01:30:27;;;;;;;21.08;10.13;;;;;;;1.87;nan;95868.69;4881827;29;20305;-69
2021/01/05 01:32:54;;;;;;;23.05;10.10;;;;;;;1.88;nan;95880.59;4883356;29;20491;-71
2021/01/05 01:35:22;;;;;;;20.17;9.98;;;;;;;1.86;nan;95866.97;4876352;29;20242;-70
2021/01/05 01:37:49;;;;;;;20.65;10.63;;;;;;;1.88;nan;95870.34;4883111;29;20616;-70
2021/01/05 01:40:24;;;;;;;19.25;9.75;;;;;;;1.69;nan;95874.50;4883429;29;20300;-70
2021/01/05 01:42:51;;;;;;;21.20;10.32;;;;;;;1.67;nan;95878.88;4882200;29;20203;-70
2021/01/05 01:45:25;;;;;;;20.38;10.52;;;;;;;1.77;nan;95877.63;4881958;29;20225;-69
2021/01/05 01:47:54;;;;;;;19.92;10.23;;;;;;;1.78;nan;95874.16;4882600;29;20712;-70
2021/01/05 01:50:25;;;;;;;23.25;11.27;;;;;;;1.81;nan;95874.03;4883975;29;20717;-69
2021/01/05 01:53:29;;;;;;;22.10;10.25;;;;;;;1.87;nan;95878.09;4882066;29;20602;-69
2021/01/05 01:56:16;;;;;;;22.95;9.50;;;;;;;1.87;nan;95871.25;4881903;29;20755;-69
2021/01/05 01:58:56;;;;;;;28.40;11.65;;;;;;;1.86;nan;95872.09;4882732;29;20707;-69
2021/01/05 02:01:31;;;;;;;28.02;12.73;;;;;;;1.90;nan;95875.38;4883379;29;20201;-70
2021/01/05 02:04:24;;;;;;;22.00;9.90;;;;;;;1.87;nan;95875.53;4886583;29;20233;-68
2021/01/05 02:07:14;;;;;;;24.25;11.40;;;;;;;1.88;nan;95878.03;4883303;29;20594;-68
2021/01/05 02:10:09;;;;;;;23.80;10.40;;;;;;;1.87;nan;95881.50;4880196;29;20312;-66
2021/01/05 02:12:42;;;;;;;22.52;11.13;;;;;;;1.86;nan;95882.38;4879614;29;20672;-66
2021/01/05 02:15:26;;;;;;;24.25;10.07;;;;;;;1.83;nan;95881.69;4879821;29;20712;-69
2021/01/05 02:18:23;;;;;;;22.50;10.38;;;;;;;1.78;nan;95889.53;4881552;29;20312;-69
2021/01/05 02:20:54;;;;;;;25.85;10.98;;;;;;;1.74;nan;95879.47;4883541;29;20309;-68
2021/01/05 02:23:33;;;;;;;29.48;12.75;;;;;;;1.52;nan;95888.88;4881067;29;20613;-68
2021/01/05 02:26:08;;;;;;;25.95;10.13;;;;;;;1.60;nan;95889.41;4880087;29;20323;-68
2021/01/05 02:28:39;;;;;;;29.02;11.68;;;;;;;1.70;nan;95881.31;4882232;29;20680;-68
2021/01/05 02:31:19;;;;;;;27.33;12.00;;;;;;;1.81;nan;95874.03;4880750;29;20235;-68
2021/01/05 02:33:53;;;;;;;25.73;11.90;;;;;;;1.84;nan;95876.47;4881303;29;20215;-68
2021/01/05 02:36:38;;;;;;;25.80;12.07;;;;;;;1.77;nan;95872.47;4882790;29;20611;-68
2021/01/05 02:39:34;;;;;;;26.50;12.18;;;;;;;1.72;nan;95879.53;4880285;29;20263;-68
2021/01/05 02:42:15;;;;;;;26.65;11.68;;;;;;;1.77;nan;95872.47;4871239;29;20288;-67
2021/01/05 02:44:49;;;;;;;23.23;11.55;;;;;;;1.84;nan;95866.22;4881703;29;20759;-68
2021/01/05 02:47:35;;;;;;;27.13;12.20;;;;;;;1.84;nan;95868.78;4880951;29;20756;-68
2021/01/05 02:50:12;;;;;;;23.15;11.93;;;;;;;1.87;nan;95868.69;4883611;29;20253;-68
2021/01/05 02:53:19;;;;;;;25.50;11.07;;;;;;;1.94;nan;95869.25;4882035;29;20221;-69
2021/01/05 02:56:19;;;;;;;28.75;12.77;;;;;;;1.93;nan;95868.41;4879071;29;20442;-68
2021/01/05 02:59:25;;;;;;;27.25;12.68;;;;;;;1.94;nan;95862.41;4879480;29;20704;-68
2021/01/05 03:02:42;;;;;;;27.77;11.68;;;;;;;1.93;nan;95870.16;4879817;29;20665;-69
2021/01/05 03:05:10;;;;;;;26.35;11.73;;;;;;;1.98;nan;95866.50;4831607;29;20226;-69
2021/01/05 03:07:37;;;;;;;29.35;11.27;;;;;;;1.96;nan;95863.16;4871683;29;20197;-68
2021/01/05 03:10:26;;;;;;;26.52;11.73;;;;;;;1.94;nan;95864.97;4880430;29;20838;-68
2021/01/05 03:13:08;;;;;;;25.65;11.50;;;;;;;1.98;nan;95861.38;4880629;29;20634;-68
2021/01/05 03:15:44;;;;;;;33.17;12.82;;;;;;;1.98;nan;95860.53;4877862;29;20275;-68
2021/01/05 03:18:20;;;;;;;29.20;12.73;;;;;;;2.00;nan;95858.75;4881365;29;20236;-69
2021/01/05 03:20:55;;;;;;;26.67;12.02;;;;;;;2.00;nan;95858.75;4879220;29;20678;-67
2021/01/05 03:23:22;;;;;;;28.88;12.13;;;;;;;1.96;nan;95863.16;4881897;29;20269;-67
2021/01/05 03:25:52;;;;;;;30.00;13.18;;;;;;;2.00;nan;95866.44;4879752;29;20312;-68
2021/01/05 03:28:24;;;;;;;30.52;12.38;;;;;;;1.92;nan;95874.44;4880991;29;20701;-68
2021/01/05 03:30:56;;;;;;;30.48;13.68;;;;;;;1.85;nan;95865.31;4884761;29;20805;-68
2021/01/05 03:33:25;;;;;;;32.67;13.02;;;;;;;1.90;nan;95858.28;4876671;29;20205;-68
2021/01/05 03:35:52;;;;;;;30.33;12.98;;;;;;;1.92;nan;95856.47;4879936;29;20324;-68
2021/01/05 03:38:18;;;;;;;29.88;12.68;;;;;;;1.93;nan;95858.13;4880854;29;20688;-68
2021/01/05 03:40:45;;;;;;;33.78;14.68;;;;;;;1.94;nan;95859.84;4881229;29;20672;-68
2021/01/05 03:43:12;;;;;;;31.60;13.45;;;;;;;1.97;nan;95858.84;4881104;29;20573;-68
2021/01/05 03:45:39;;;;;;;30.13;13.60;;;;;;;1.90;nan;95860.00;4880282;29;20761;-68
2021/01/05 03:48:07;;;;;;;39.22;14.00;;;;;;;1.89;nan;95872.00;4880616;29;20638;-69
2021/01/05 03:50:34;;;;;;;33.85;14.00;;;;;;;1.83;nan;95867.13;4880759;29;20344;-69
2021/01/05 03:53:01;;;;;;;33.33;14.32;;;;;;;1.84;nan;95868.78;4880721;29;20821;-68
2021/01/05 03:55:28;;;;;;;28.58;14.10;;;;;;;1.82;nan;95865.44;4882301;29;20551;-68
2021/01/05 03:57:55;;;;;;;34.10;14.93;;;;;;;1.87;nan;95866.09;4880587;29;20889;-69
2021/01/05 04:00:27;;;;;;;30.73;14.27;;;;;;;1.85;nan;95847.34;4875041;29;20225;-68
2021/01/05 04:02:56;;;;;;;29.17;13.07;;;;;;;2.03;nan;95871.44;4880520;29;20566;-68
2021/01/05 04:05:26;;;;;;;33.13;14.70;;;;;;;2.03;nan;95872.28;4876167;29;20345;-68
2021/01/05 04:07:53;;;;;;;32.95;14.80;;;;;;;1.97;nan;95869.13;4880109;29;20209;-68
2021/01/05 04:10:20;;;;;;;33.85;13.82;;;;;;;1.95;nan;95866.63;4880010;29;20312;-68
2021/01/05 04:12:47;;;;;;;32.90;15.98;;;;;;;1.99;nan;95865.59;4883526;29;20748;-68
2021/01/05 04:15:17;;;;;;;28.83;14.18;;;;;;;2.05;nan;95861.97;4883494;29;20280;-68
2021/01/05 04:17:44;;;;;;;34.90;15.30;;;;;;;2.05;nan;95867.91;4883134;29;20586;-69
2021/01/05 04:20:12;;;;;;;39.22;15.10;;;;;;;2.01;nan;95866.38;4886643;29;20747;-68
2021/01/05 04:22:46;;;;;;;34.55;15.18;;;;;;;1.98;nan;95870.81;4883847;29;20817;-68
2021/01/05 04:25:15;;;;;;;31.60;13.75;;;;;;;2.00;nan;95864.69;4875310;29;20881;-66
2021/01/05 04:27:43;;;;;;;33.22;14.50;;;;;;;1.94;nan;95862.41;4885847;29;20631;-67
2021/01/05 04:30:18;;;;;;;37.70;15.38;;;;;;;2.04;nan;95861.13;4885806;29;20300;-67
2021/01/05 04:32:45;;;;;;;33.13;15.20;;;;;;;2.07;nan;95871.25;4883304;29;20628;-67
2021/01/05 04:35:13;;;;;;;35.63;15.65;;;;;;;2.09;nan;95869.47;4881196;29;20273;-68
2021/01/05 04:37:40;;;;;;;35.90;16.30;;;;;;;2.03;nan;95864.59;4890067;29;20244;-68
2021/01/05 04:40:31;;;;;;;38.97;15.90;;;;;;;2.09;nan;95859.22;4888086;29;20316;-68
2021/01/05 04:43:19;;;;;;;32.25;15.38;;;;;;;2.03;nan;95863.75;4886988;29;20217;-68
2021/01/05 04:45:55;;;;;;;38.38;16.67;;;;;;;1.96;nan;95855.47;4882588;29;20649;-68
2021/01/05 04:48:38;;;;;;;36.28;15.32;;;;;;;2.04;nan;95858.56;4880792;29;20257;-68
2021/01/05 04:51:16;;;;;;;39.30;15.68;;;;;;;2.06;nan;95868.75;4881776;29;20235;-68
2021/01/05 04:53:49;;;;;;;32.55;15.55;;;;;;;2.12;nan;95869.34;4885656;29;20586;-69
2021/01/05 04:56:18;;;;;;;35.90;15.70;;;;;;;2.07;nan;95873.00;4893717;29;20209;-68
2021/01/05 04:58:50;;;;;;;33.25;14.48;;;;;;;2.01;nan;95875.81;4882028;29;20728;-69
2021/01/05 05:01:20;;;;;;;35.85;16.20;;;;;;;2.06;nan;95873.91;4881908;29;20621;-68
2021/01/05 05:04:06;;;;;;;30.40;16.13;;;;;;;2.14;nan;95876.97;4882244;29;20212;-68
2021/01/05 05:06:37;;;;;;;38.67;18.13;;;;;;;2.20;nan;95879.31;4880160;29;20494;-67
2021/01/05 05:09:15;;;;;;;38.05;15.90;;;;;;;2.19;nan;95882.75;4883215;29;20925;-68
2021/01/05 05:12:16;;;;;;;40.08;17.50;;;;;;;2.20;nan;95882.69;4883363;29;20515;-67
2021/01/05 05:14:55;;;;;;;30.02;14.70;;;;;;;2.22;nan;95885.19;4881445;29;20249;-68
2021/01/05 05:17:47;;;;;;;31.58;15.05;;;;;;;2.24;nan;95885.97;4882680;29;20673;-68
2021/01/05 05:20:34;;;;;;;35.65;15.25;;;;;;;2.27;nan;95884.09;4884333;29;20706;-67
2021/01/05 05:23:34;;;;;;;35.08;15.55;;;;;;;2.35;nan;95892.31;4883231;29;20308;-68
2021/01/05 05:26:08;;;;;;;30.77;15.13;;;;;;;2.26;nan;95882.44;4885466;29;20229;-67
2021/01/05 05:28:43;;;;;;;35.15;15.75;;;;;;;2.28;nan;95890.09;4881970;29;20289;-67
2021/01/05 05:31:17;;;;;;;32.67;15.43;;;;;;;2.30;nan;95899.41;4880407;29;20284;-67
2021/01/05 05:33:47;;;;;;;35.72;14.20;;;;;;;2.23;nan;95897.97;4886123;29;20256;-68
2021/01/05 05:36:33;;;;;;;31.75;14.80;;;;;;;2.20;nan;95898.09;4885339;29;20232;-68
2021/01/05 05:39:18;;;;;;;33.47;14.23;;;;;;;2.24;nan;95903.94;4881298;29;20234;-68
2021/01/05 05:41:56;;;;;;;38.75;15.50;;;;;;;2.20;nan;95908.34;4884505;29;20284;-68
2021/01/05 05:44:29;;;;;;;32.42;14.35;;;;;;;2.24;nan;95903.94;4882403;29;20661;-68
2021/01/05 05:47:02;;;;;;;31.65;13.52;;;;;;;2.27;nan;95903.81;4883006;29;20237;-68
2021/01/05 05:49:42;;;;;;;32.83;16.08;;;;;;;2.27;nan;95909.78;4879045;29;20308;-67
2021/01/05 05:52:22;;;;;;;34.85;14.82;;;;;;;2.36;nan;95908.56;4881565;29;20346;-68
2021/01/05 05:54:49;;;;;;;38.05;14.65;;;;;;;2.38;nan;95912.75;4875873;29;20264;-68
2021/01/05 05:57:36;;;;;;;34.30;15.65;;;;;;;2.39;nan;95904.16;4881560;29;20559;-67
2021/01/05 06:00:26;;;;;;;31.25;14.77;;;;;;;2.42;nan;95911.69;4884130;29;20766;-68
2021/01/05 06:02:53;;;;;;;31.10;14.35;;;;;;;2.43;nan;95915.13;4883441;29;20249;-67
2021/01/05 06:05:26;;;;;;;34.20;15.07;;;;;;;2.26;nan;95881.59;4881959;29;20726;-68
2021/01/05 06:07:53;;;;;;;38.50;14.40;;;;;;;2.45;nan;95924.44;4882085;29;20633;-67
2021/01/05 06:10:20;;;;;;;30.38;14.50;;;;;;;2.45;nan;95924.44;4883033;29;20560;-68
2021/01/05 06:12:50;;;;;;;32.38;13.77;;;;;;;2.44;nan;95927.06;4881086;29;20352;-68
2021/01/05 06:15:17;;;;;;;32.42;14.07;;;;;;;2.35;nan;95912.84;4882260;29;20634;-70
2021/01/05 06:17:46;;;;;;;31.90;14.93;;;;;;;2.41;nan;95930.59;4888226;29;20673;-68
2021/01/05 06:20:13;;;;;;;34.25;15.05;;;;;;;2.29;nan;95932.81;4888998;29;20267;-68
2021/01/05 06:22:41;;;;;;;26.90;12.85;;;;;;;2.39;nan;95934.94;4890292;29;20194;-68
2021/01/05 06:25:11;;;;;;;38.63;14.93;;;;;;;2.45;nan;95939.84;4881412;29;20329;-69
2021/01/05 06:27:44;;;;;;;30.95;14.50;;;;;;;2.41;nan;95948.56;4882808;29;20205;-68
2021/01/05 06:30:12;;;;;;;33.90;14.73;;;;;;;2.41;nan;95945.13;4879985;29;20225;-68
2021/01/05 06:32:39;;;;;;;35.10;15.50;;;;;;;2.39;nan;95945.22;4880484;29;20295;-67
2021/01/05 06:35:09;;;;;;;30.58;14.30;;;;;;;2.42;nan;95954.53;4881911;29;20332;-68
2021/01/05 06:37:36;;;;;;;31.45;14.27;;;;;;;2.49;nan;95950.81;4882157;29;20702;-68
2021/01/05 06:40:05;;;;;;;33.60;15.35;;;;;;;2.45;nan;95956.97;4883073;29;20292;-68
2021/01/05 06:42:31;;;;;;;34.08;14.98;;;;;;;2.47;nan;95957.72;4882187;29;20304;-68
2021/01/05 06:44:58;;;;;;;34.47;14.82;;;;;;;2.47;nan;95952.59;4886854;29;20736;-67
2021/01/05 06:47:25;;;;;;;32.55;15.23;;;;;;;2.41;nan;95952.84;4880669;29;20297;-68
2021/01/05 06:49:54;;;;;;;35.58;16.33;;;;;;;2.48;nan;95952.53;4880042;29;20227;-67
2021/01/05 06:52:24;;;;;;;36.63;16.08;;;;;;;2.48;nan;95959.41;4883144;29;20582;-67
2021/01/05 06:54:51;;;;;;;36.88;16.02;;;;;;;2.24;nan;95927.88;4879085;29;20763;-68
2021/01/05 06:57:18;;;;;;;29.40;14.48;;;;;;;2.38;nan;95950.41;4881098;29;20229;-68
2021/01/05 06:59:49;;;;;;;38.42;15.63;;;;;;;2.43;nan;95951.88;4880831;29;20561;-68
2021/01/05 07:02:16;;;;;;;36.72;15.95;;;;;;;2.44;nan;95956.13;4881354;29;20536;-67
2021/01/05 07:04:43;;;;;;;31.92;14.85;;;;;;;2.48;nan;95951.69;4879435;29;20317;-68
2021/01/05 07:07:11;;;;;;;35.38;15.25;;;;;;;2.34;nan;95931.72;4878243;29;20875;-69
2021/01/05 07:09:39;;;;;;;34.90;15.80;;;;;;;2.43;nan;95951.06;4883878;29;20325;-68
2021/01/05 07:12:06;;;;;;;30.58;14.48;;;;;;;2.42;nan;95955.34;4882164;29;20259;-68
2021/01/05 07:14:33;;;;;;;32.38;15.40;;;;;;;2.43;nan;95956.19;4879145;29;20296;-69
2021/01/05 07:16:59;;;;;;;37.20;14.77;;;;;;;2.47;nan;95953.44;4879692;29;20294;-68
2021/01/05 07:19:26;;;;;;;29.10;14.18;;;;;;;2.50;nan;95957.63;4879670;29;20304;-68
2021/01/05 07:21:53;;;;;;;38.33;15.60;;;;;;;2.54;nan;95961.72;4879598;29;20280;-67
2021/01/05 07:24:20;;;;;;;31.95;15.75;;;;;;;2.41;nan;95956.25;4880779;29;20230;-68
2021/01/05 07:26:50;;;;;;;28.55;13.40;;;;;;;2.50;nan;95955.88;4880861;29;20756;-68
2021/01/05 07:29:19;;;;;;;37.13;15.63;;;;;;;2.57;nan;95959.84;4878686;29;20303;-68
2021/01/05 07:31:46;;;;;;;33.90;13.40;;;;;;;2.40;nan;95957.16;4881970;29;20733;-68
2021/01/05 07:34:14;;;;;;;34.25;14.65;;;;;;;2.45;nan;95960.38;4876285;29;20716;-67
2021/01/05 07:36:46;;;;;;;33.22;15.73;;;;;;;2.46;nan;95962.03;4861657;29;20256;-67
2021/01/05 07:39:19;;;;;;;28.42;13.95;;;;;;;2.28;nan;95947.38;4859767;29;20876;-68
2021/01/05 07:41:46;;;;;;;34.67;15.77;;;;;;;2.41;nan;95965.69;4861666;29;20290;-67
2021/01/05 07:44:14;;;;;;;35.72;14.95;;;;;;;2.41;nan;95979.34;4860366;29;20314;-67
2021/01/05 07:46:41;;;;;;;36.03;15.57;;;;;;;2.42;nan;95972.50;4865574;29;20397;-68
2021/01/05 07:49:08;;;;;;;28.35;15.55;;;;;;;2.51;nan;95979.84;4874217;29;20317;-68
2021/01/05 07:51:35;;;;;;;30.50;14.20;;;;;;;2.53;nan;95972.88;4868226;29;20207;-68
2021/01/05 07:54:02;;;;;;;32.85;16.10;;;;;;;2.52;nan;95977.22;4864770;29;20688;-67
2021/01/05 07:56:29;;;;;;;35.70;16.70;;;;;;;2.48;nan;95970.50;4870520;29;20203;-67
2021/01/05 07:58:56;;;;;;;33.30;15.93;;;;;;;2.57;nan;95975.28;4864809;29;20232;-67
2021/01/05 08:01:31;;;;;;;25.45;13.80;;;;;;;2.57;nan;95965.00;4865759;29;20696;-67
2021/01/05 08:03:58;;;;;;;29.38;12.65;;;;;;;2.66;nan;95979.19;4867438;29;20254;-67
2021/01/05 08:06:25;;;;;;;38.05;16.60;;;;;;;2.61;nan;95963.97;4865810;29;20203;-67
2021/01/05 08:08:52;;;;;;;29.55;13.23;;;;;;;2.56;nan;95958.19;4864519;29;20289;-68
2021/01/05 08:11:20;;;;;;;29.88;13.90;;;;;;;2.60;nan;95957.19;4865719;29;20306;-67
2021/01/05 08:13:47;;;;;;;29.90;13.88;;;;;;;2.64;nan;95957.88;4866192;29;20287;-67
2021/01/05 08:16:14;;;;;;;31.33;13.57;;;;;;;2.69;nan;95949.09;4865623;29;20646;-67
2021/01/05 08:18:42;;;;;;;28.55;13.95;;;;;;;2.61;nan;95948.56;4870560;29;20207;-67
2021/01/05 08:21:11;;;;;;;37.13;17.10;;;;;;;2.63;nan;95961.34;4864658;29;20759;-67
2021/01/05 08:23:43;;;;;;;32.30;15.77;;;;;;;2.66;nan;95962.03;4882224;29;20278;-68
2021/01/05 08:26:11;;;;;;;32.53;14.40;;;;;;;2.62;nan;95967.38;4864171;29;20314;-68
2021/01/05 08:28:38;;;;;;;27.05;13.50;;;;;;;2.61;nan;95971.69;4865576;29;20209;-68
2021/01/05 08:31:05;;;;;;;33.35;14.82;;;;;;;2.60;nan;95975.16;4871451;29;20709;-67
2021/01/05 08:33:37;;;;;;;25.02;13.65;;;;;;;2.59;nan;95982.91;4867060;29;20538;-67
2021/01/05 08:36:13;;;;;;;25.27;12.60;;;;;;;2.54;nan;95977.13;4887169;29;20636;-68
2021/01/05 08:38:45;;;;;;;24.70;12.55;;;;;;;2.51;nan;95972.13;4882739;29;20256;-67
2021/01/05 08:41:17;;;;;;;33.88;13.95;;;;;;;2.55;nan;95977.06;4883882;29;20358;-68
2021/01/05 08:43:49;;;;;;;26.35;12.38;;;;;;;2.54;nan;95974.56;4886000;29;20242;-67
2021/01/05 08:46:20;;;;;;;30.23;12.90;;;;;;;2.57;nan;95975.28;4883102;29;20204;-67
2021/01/05 08:48:47;;;;;;;32.13;13.90;;;;;;;2.60;nan;95972.59;4884148;29;20234;-68
2021/01/05 08:51:17;;;;;;;28.17;12.98;;;;;;;2.59;nan;95967.50;4884956;29;20627;-67
2021/01/05 08:53:45;;;;;;;145.32;62.17;;;;;;;2.61;nan;95970.84;4880422;29;20536;-67
2021/01/05 08:56:16;;;;;;;88.22;40.28;;;;;;;2.65;nan;95968.06;4883393;29;20580;-68
2021/01/05 08:58:43;;;;;;;30.50;14.30;;;;;;;2.62;nan;95968.22;4885113;29;20215;-68
2021/01/05 09:01:10;;;;;;;29.05;13.70;;;;;;;2.57;nan;95964.19;4883407;29;20199;-68
2021/01/05 09:03:37;;;;;;;23.55;11.73;;;;;;;2.53;nan;95968.59;4882602;29;20739;-67
2021/01/05 09:06:04;;;;;;;29.20;13.57;;;;;;;2.53;nan;95963.47;4884351;29;20674;-67
2021/01/05 09:08:33;;;;;;;27.85;13.55;;;;;;;2.47;nan;95966.28;4883047;29;20224;-67
2021/01/05 09:11:01;;;;;;;29.15;12.68;;;;;;;2.49;nan;95969.63;4884793;29;20308;-68
2021/01/05 09:13:28;;;;;;;31.02;14.60;;;;;;;2.56;nan;95968.47;4885078;29;20932;-68
2021/01/05 09:15:55;;;;;;;28.92;12.80;;;;;;;2.62;nan;95972.50;4884500;29;20593;-68
2021/01/05 09:18:23;;;;;;;29.77;13.27;;;;;;;2.66;nan;95972.31;4882659;29;20800;-68
2021/01/05 09:20:51;;;;;;;23.67;12.10;;;;;;;2.65;nan;95973.22;4882964;29;20594;-67
2021/01/05 09:23:22;;;;;;;25.23;13.90;;;;;;;2.51;nan;95956.72;4883207;29;20585;-68
2021/01/05 09:25:51;;;;;;;28.25;13.70;;;;;;;2.61;nan;95966.56;4882805;29;20234;-68
2021/01/05 09:28:18;;;;;;;27.10;13.38;;;;;;;2.64;nan;95974.13;4882854;29;20212;-68
2021/01/05 09:30:46;;;;;;;27.33;12.95;;;;;;;2.64;nan;95971.56;4886561;29;20222;-67
2021/01/05 09:33:13;;;;;;;23.50;12.45;;;;;;;2.60;nan;95964.88;4882909;29;20218;-67
2021/01/05 09:35:40;;;;;;;25.42;12.93;;;;;;;2.72;nan;95973.81;4882326;29;20340;-67
2021/01/05 09:38:09;;;;;;;26.88;12.48;;;;;;;2.61;nan;95975.97;4883574;29;20910;-67
2021/01/05 09:40:36;;;;;;;26.30;11.07;;;;;;;2.60;nan;95980.28;4884788;29;20230;-68
2021/01/05 09:43:04;;;;;;;23.52;11.40;;;;;;;2.67;nan;95976.56;4883428;29;20264;-68
2021/01/05 09:45:31;;;;;;;22.48;11.32;;;;;;;2.66;nan;95974.88;4882570;29;20309;-67
2021/01/05 09:48:08;;;;;;;21.08;10.45;;;;;;;2.67;nan;95968.03;4888680;29;20296;-68
2021/01/05 09:50:36;;;;;;;17.05;9.60;;;;;;;2.68;nan;95975.69;4880065;29;20545;-67
2021/01/05 09:53:03;;;;;;;22.42;9.85;;;;;;;2.56;nan;95963.34;4882652;29;20611;-67
2021/01/05 09:55:31;;;;;;;22.05;10.40;;;;;;;2.68;nan;95977.41;4887126;29;20255;-68
2021/01/05 09:57:58;;;;;;;21.98;10.40;;;;;;;2.66;nan;95980.00;4886621;29;20643;-67
2021/01/05 10:00:26;;;;;;;16.77;9.93;;;;;;;2.67;nan;95976.56;4877313;29;20266;-69
2021/01/05 10:02:53;;;;;;;20.90;11.35;;;;;;;2.68;nan;95982.53;4882620;29;20766;-68
2021/01/05 10:05:21;;;;;;;21.52;10.48;;;;;;;2.68;nan;95988.53;4884992;29;20287;-68
2021/01/05 10:07:48;;;;;;;21.10;11.35;;;;;;;2.60;nan;95980.28;4886415;29;20293;-68
2021/01/05 10:10:16;;;;;;;20.67;9.65;;;;;;;2.71;nan;95983.25;4882410;29;20874;-67
2021/01/05 10:12:43;;;;;;;22.17;11.70;;;;;;;2.71;nan;95975.53;4881766;29;20830;-68
2021/01/05 10:15:15;;;;;;;24.27;11.60;;;;;;;2.61;nan;95976.81;4884854;29;20251;-68
2021/01/05 10:17:42;;;;;;;25.25;11.65;;;;;;;2.57;nan;95980.41;4883218;29;20710;-68
2021/01/05 10:20:12;;;;;;;22.73;11.70;;;;;;;2.68;nan;95979.97;4879941;29;20264;-68
2021/01/05 10:22:39;;;;;;;27.00;12.35;;;;;;;2.70;nan;95973.88;4882138;29;20280;-68
2021/01/05 10:25:08;;;;;;;26.73;12.15;;;;;;;2.75;nan;95969.38;4881004;29;20756;-68
2021/01/05 10:27:36;;;;;;;24.77;12.25;;;;;;;2.79;nan;95976.03;4882838;29;20598;-67
2021/01/05 10:30:04;;;;;;;27.00;11.50;;;;;;;2.86;nan;95972.31;4882089;29;20233;-68
2021/01/05 10:32:31;;;;;;;23.45;11.30;;;;;;;2.89;nan;95967.06;4881647;29;20577;-68
2021/01/05 10:34:59;;;;;;;23.25;11.68;;;;;;;2.91;nan;95970.41;4880793;29;20669;-67
2021/01/05 10:37:28;;;;;;;24.20;12.20;;;;;;;2.92;nan;95968.66;4883033;29;20243;-67
2021/01/05 10:40:08;;;;;;;26.15;12.30;;;;;;;2.81;nan;95943.41;4880810;29;20695;-67
2021/01/05 10:42:40;;;;;;;22.55;10.75;;;;;;;2.87;nan;95963.72;4882392;29;20514;-68
2021/01/05 10:45:08;;;;;;;23.08;11.90;;;;;;;2.89;nan;95958.50;4883175;29;20296;-67
2021/01/05 10:47:38;;;;;;;29.42;12.30;;;;;;;2.82;nan;95964.81;4887805;29;20202;-67
2021/01/05 10:50:10;;;;;;;25.67;13.85;;;;;;;2.86;nan;95958.66;4881964;29;20718;-67
2021/01/05 10:52:37;;;;;;;23.15;12.10;;;;;;;2.87;nan;95956.00;4887327;29;20753;-67
2021/01/05 10:55:05;;;;;;;27.20;12.00;;;;;;;2.86;nan;95954.34;4881424;29;20737;-68
2021/01/05 10:57:32;;;;;;;26.45;13.13;;;;;;;2.89;nan;95946.53;4884611;29;20288;-67
2021/01/05 10:59:59;;;;;;;30.30;13.35;;;;;;;2.88;nan;95944.81;4878103;29;20318;-67
2021/01/05 11:02:26;;;;;;;31.80;13.63;;;;;;;2.89;nan;95951.66;4884048;29;20304;-67
2021/01/05 11:04:52;;;;;;;28.95;12.88;;;;;;;2.87;nan;95948.28;4881429;29;20548;-68
2021/01/05 11:07:20;;;;;;;25.95;11.80;;;;;;;2.92;nan;95951.50;4882389;29;20203;-68
2021/01/05 11:09:47;;;;;;;30.05;13.57;;;;;;;2.98;nan;95951.25;4881999;29;20725;-68
2021/01/05 11:12:21;;;;;;;27.45;12.65;;;;;;;2.93;nan;95948.03;4881478;29;20627;-68
2021/01/05 11:14:48;;;;;;;33.58;12.95;;;;;;;2.94;nan;95941.19;4879871;29;20933;-68
2021/01/05 11:17:21;;;;;;;35.88;13.45;;;;;;;2.98;nan;95943.53;4883724;29;20629;-68
2021/01/05 11:19:48;;;;;;;27.08;12.23;;;;;;;3.08;nan;95934.53;4882033;29;20810;-68
2021/01/05 11:22:17;;;;;;;26.30;13.13;;;;;;;3.07;nan;95938.00;4886907;29;20347;-68
2021/01/05 11:24:47;;;;;;;38.92;13.38;;;;;;;3.10;nan;95934.47;4887467;29;20331;-68
2021/01/05 11:27:17;;;;;;;31.88;12.48;;;;;;;3.10;nan;95924.19;4888753;29;20202;-68
2021/01/05 11:29:45;;;;;;;27.40;12.30;;;;;;;3.11;nan;95924.13;4886231;29;20221;-68
2021/01/05 11:32:13;;;;;;;27.25;12.20;;;;;;;3.11;nan;95924.13;4885790;29;20214;-68
2021/01/05 11:34:41;;;;;;;29.80;11.40;;;;;;;3.11;nan;95918.13;4887154;29;20568;-68
2021/01/05 11:37:10;;;;;;;30.02;13.25;;;;;;;3.15;nan;95922.25;4887949;29;20295;-68
2021/01/05 11:39:42;;;;;;;33.55;14.27;;;;;;;3.10;nan;95925.00;4886806;29;20252;-68
2021/01/05 11:42:14;;;;;;;33.35;13.73;;;;;;;3.03;nan;95925.34;4884966;29;20881;-68
2021/01/05 11:44:44;;;;;;;31.08;14.05;;;;;;;3.08;nan;95926.81;4887222;29;20229;-68
2021/01/05 11:47:14;;;;;;;25.58;13.20;;;;;;;3.08;nan;95926.81;4895031;29;20215;-68
2021/01/05 11:49:41;;;;;;;29.58;13.23;;;;;;;3.06;nan;95923.47;4890244;29;20248;-69
2021/01/05 11:52:08;;;;;;;23.48;12.25;;;;;;;3.06;nan;95923.47;4889628;29;20699;-69
2021/01/05 11:54:35;;;;;;;25.08;13.27;;;;;;;3.09;nan;95910.50;4886372;29;20573;-68
2021/01/05 11:57:02;;;;;;;28.55;13.45;;;;;;;3.02;nan;95914.22;4888006;29;20289;-69
2021/01/05 11:59:30;;;;;;;31.10;14.25;;;;;;;3.10;nan;95908.75;4885235;29;20296;-68
2021/01/05 12:02:00;;;;;;;30.50;14.10;;;;;;;3.09;nan;95904.53;4886337;29;20288;-69
2021/01/05 12:04:28;;;;;;;29.75;13.75;;;;;;;3.08;nan;95895.16;4888266;29;20621;-68